Time;durP1;ratioP1;P1;durP2;ratioP2;P2;SDS_P1;SDS_P2;PMS_P1;PMS_P2;Temp;Humidity;BMP_temperature;BMP_pressure;BME280_temperature;BME280_humidity;BME280_pressure;Samples;Min_cycle;Max_cycle;Signal;HPM_P1;HPM_P2
2023/12/19 07:00:49;;;;;;;;;4.67;4.67;;;;;20.19;42.82;102439.22;5411356;23;46707;-73
2023/12/19 07:03:15;;;;;;;;;4.67;4.67;;;;;20.23;43.41;102442.44;4933357;28;45593;-73
2023/12/19 07:05:40;;;;;;;;;2.67;2.67;;;;;20.15;43.28;102435.16;4937757;28;45746;-73
2023/12/19 07:08:06;;;;;;;;;4.00;4.00;;;;;20.21;42.99;102437.28;4937195;28;46218;-73
2023/12/19 07:10:31;;;;;;;;;5.00;4.00;;;;;20.28;43.40;102443.72;4937737;28;45508;-73
2023/12/19 07:12:57;;;;;;;;;3.67;3.33;;;;;20.31;43.33;102447.91;4938034;28;45335;-77
2023/12/19 07:15:23;;;;;;;;;7.00;4.33;;;;;20.32;43.16;102452.25;4937832;28;45447;-72
2023/12/19 07:17:49;;;;;;;;;5.00;3.67;;;;;20.33;43.43;102443.34;4936970;28;46374;-80
2023/12/19 07:20:14;;;;;;;;;5.67;4.33;;;;;20.34;43.79;102441.53;4937483;28;45385;-76
2023/12/19 07:22:40;;;;;;;;;5.00;5.00;;;;;20.35;43.62;102441.41;4925219;28;45516;-74
2023/12/19 07:25:06;;;;;;;;;1.00;1.00;;;;;20.31;44.00;102428.56;4934348;28;45522;-82
2023/12/19 07:27:34;;;;;;;;;3.67;3.67;;;;;20.22;43.63;102409.06;4937369;28;47035;-77
2023/12/19 07:29:59;;;;;;;;;3.67;3.67;;;;;20.24;43.94;102399.19;4936440;28;45372;-78
2023/12/19 07:32:25;;;;;;;;;5.33;5.33;;;;;20.22;44.07;102401.13;4935988;28;45424;-78
2023/12/19 07:34:50;;;;;;;;;7.33;6.33;;;;;20.33;43.50;102418.69;4937831;28;45343;-78
2023/12/19 07:37:16;;;;;;;;;5.00;5.00;;;;;20.32;43.68;102412.59;4937284;28;46898;-78
2023/12/19 07:39:41;;;;;;;;;6.00;5.00;;;;;20.26;43.42;102400.75;4937786;28;45371;-78
2023/12/19 07:42:07;;;;;;;;;4.00;4.00;;;;;20.32;43.77;102402.03;4937892;28;45382;-78
2023/12/19 07:44:33;;;;;;;;;2.67;2.67;;;;;20.31;43.50;102392.41;4937840;28;45298;-77
2023/12/19 07:46:59;;;;;;;;;4.67;4.33;;;;;20.30;43.77;102398.66;4937302;28;46468;-77
2023/12/19 07:49:24;;;;;;;;;5.67;4.67;;;;;20.32;43.72;102402.03;4937513;28;45470;-77
2023/12/19 07:51:49;;;;;;;;;3.67;3.67;;;;;20.19;43.59;102375.81;4937812;28;45310;-78
2023/12/19 07:54:15;;;;;;;;;5.33;4.00;;;;;20.21;43.38;102380.94;4937457;28;45335;-77
2023/12/19 07:56:41;;;;;;;;;5.33;5.00;;;;;20.29;43.65;102397.84;4937299;28;46014;-76
2023/12/19 07:59:06;;;;;;;;;5.67;5.67;;;;;20.29;43.53;102389.06;4935966;28;45402;-77
2023/12/19 08:01:32;;;;;;;;;2.67;2.67;;;;;20.13;43.22;102358.66;4936888;28;45520;-77
2023/12/19 08:03:57;;;;;;;;;4.67;4.67;;;;;20.22;43.58;102377.34;4936177;28;45488;-78
2023/12/19 08:06:22;;;;;;;;;5.00;5.00;;;;;20.17;43.31;102370.63;4935921;28;54474;-78
2023/12/19 08:08:50;;;;;;;;;6.67;5.00;;;;;20.17;43.42;102373.28;4937455;28;45458;-78
2023/12/19 08:11:16;;;;;;;;;3.67;3.67;;;;;20.24;43.37;102389.47;4937543;28;45441;-78
2023/12/19 08:13:41;;;;;;;;;5.00;5.00;;;;;20.18;43.66;102374.13;4937572;28;45461;-77
2023/12/19 08:16:07;;;;;;;;;4.33;2.67;;;;;20.25;43.55;102382.34;4937249;28;46085;-78
2023/12/19 08:18:32;;;;;;;;;3.00;3.00;;;;;20.09;43.36;102361.66;4937296;28;45431;-77
2023/12/19 08:20:58;;;;;;;;;5.00;4.00;;;;;20.27;43.27;102394.47;4937073;28;45584;-77
2023/12/19 08:23:23;;;;;;;;;5.00;5.00;;;;;20.28;43.53;102388.22;4937409;28;45399;-77
2023/12/19 08:25:48;;;;;;;;;3.33;3.33;;;;;20.18;43.31;102382.88;4936217;28;47094;-77
2023/12/19 08:28:14;;;;;;;;;4.33;4.00;;;;;20.22;43.39;102382.63;4936448;28;54145;-77
2023/12/19 08:30:40;;;;;;;;;3.00;3.00;;;;;20.18;43.46;102380.25;4936520;28;45287;-77
2023/12/19 08:33:05;;;;;;;;;4.00;4.00;;;;;20.14;43.40;102368.25;4936648;28;45458;-77
2023/12/19 08:35:31;;;;;;;;;5.00;5.00;;;;;20.27;43.19;102381.25;4936449;28;47269;-77
2023/12/19 08:37:56;;;;;;;;;3.00;3.00;;;;;20.11;43.09;102360.56;4936410;28;45318;-77
2023/12/19 08:40:21;;;;;;;;;3.33;2.67;;;;;20.17;43.43;102357.41;4936998;28;45533;-77
2023/12/19 08:42:48;;;;;;;;;5.33;3.67;;;;;20.23;43.54;102377.22;4936458;28;45477;-77
2023/12/19 08:45:18;;;;;;;;;3.67;3.67;;;;;20.26;43.41;102378.75;4936043;28;46969;-77
2023/12/19 08:47:44;;;;;;;;;4.00;4.00;;;;;20.27;43.19;102373.31;4935505;28;45509;-76
2023/12/19 08:50:12;;;;;;;;;2.67;2.67;;;;;20.21;43.18;102371.22;4936166;28;45431;-74
2023/12/19 08:52:38;;;;;;;;;4.00;4.00;;;;;20.26;43.58;102368.19;4936050;28;45429;-73
2023/12/19 08:55:07;;;;;;;;;3.33;3.33;;;;;20.26;43.60;102365.53;4937270;28;45315;-72
2023/12/19 08:57:35;;;;;;;;;4.00;4.00;;;;;20.26;43.44;102373.47;4938465;28;45489;-75
2023/12/19 09:00:02;;;;;;;;;4.67;4.67;;;;;20.26;43.24;102376.09;4938705;28;45361;-74
2023/12/19 09:02:28;;;;;;;;;3.00;3.00;;;;;20.18;43.74;102364.38;4939371;28;45560;-74
2023/12/19 09:04:53;;;;;;;;;3.67;3.67;;;;;20.16;43.24;102357.56;4938791;28;47085;-77
2023/12/19 09:07:18;;;;;;;;;5.33;5.33;;;;;20.21;43.20;102362.44;4937697;28;50637;-75
2023/12/19 09:09:44;;;;;;;;;4.33;4.33;;;;;20.14;43.32;102348.94;4938192;28;48283;-75
2023/12/19 09:12:09;;;;;;;;;4.67;4.67;;;;;20.24;43.27;102364.84;4938827;28;51325;-75
2023/12/19 09:14:36;;;;;;;;;6.00;5.00;;;;;20.15;43.51;102343.50;4938825;28;45409;-73
2023/12/19 09:17:02;;;;;;;;;4.67;3.67;;;;;19.94;43.37;102303.84;4939370;28;45378;-76
2023/12/19 09:19:30;;;;;;;;;4.67;3.33;;;;;20.17;43.39;102340.72;4938422;28;45568;-73
2023/12/19 09:21:57;;;;;;;;;5.67;4.67;;;;;20.24;43.34;102341.91;4939462;28;45446;-76
2023/12/19 09:24:22;;;;;;;;;5.67;5.67;;;;;20.12;43.26;102322.63;4938990;28;46644;-77
2023/12/19 09:26:48;;;;;;;;;4.33;4.33;;;;;20.16;43.53;102323.19;4938244;28;45438;-76
2023/12/19 09:29:14;;;;;;;;;3.00;3.00;;;;;20.24;43.37;102333.13;4938674;28;45367;-76
2023/12/19 09:31:39;;;;;;;;;5.33;4.00;;;;;20.25;43.70;102326.84;4937528;28;45542;-76
2023/12/19 09:34:05;;;;;;;;;4.67;4.67;;;;;20.18;43.46;102310.69;4938052;28;46547;-73
2023/12/19 09:36:30;;;;;;;;;7.00;6.00;;;;;20.25;43.45;102321.56;4939086;28;45334;-73
2023/12/19 09:38:56;;;;;;;;;3.67;3.67;;;;;20.24;43.32;102318.09;4939065;28;45411;-76
2023/12/19 09:41:21;;;;;;;;;4.33;3.33;;;;;19.99;43.59;102284.97;4939201;28;46901;-76
2023/12/19 09:43:46;;;;;;;;;5.33;3.67;;;;;20.22;43.41;102313.91;4938678;28;45271;-76
2023/12/19 09:46:13;;;;;;;;;5.00;3.67;;;;;20.24;43.30;102325.19;4938602;28;45401;-76
2023/12/19 09:48:42;;;;;;;;;5.67;3.33;;;;;20.18;43.24;102310.69;4938869;28;45363;-74
2023/12/19 09:51:19;;;;;;;;;4.00;4.00;;;;;20.25;43.46;102322.41;4936600;28;45234;-76
2023/12/19 09:53:46;;;;;;;;;6.00;6.00;;;;;20.25;43.23;102314.47;4937083;28;46349;-77
2023/12/19 09:56:12;;;;;;;;;4.33;4.00;;;;;20.23;43.40;102305.00;4939013;28;45437;-76
2023/12/19 09:58:40;;;;;;;;;4.33;3.00;;;;;20.23;43.31;102310.28;4938335;28;45345;-77
2023/12/19 10:01:07;;;;;;;;;4.33;2.67;;;;;20.23;43.11;102308.50;4938512;28;45556;-77
2023/12/19 10:03:34;;;;;;;;;4.67;4.67;;;;;20.23;42.95;102307.66;4938183;28;46158;-76
2023/12/19 10:06:00;;;;;;;;;4.67;4.67;;;;;20.20;43.10;102295.53;4937013;28;46578;-76
2023/12/19 10:08:26;;;;;;;;;4.33;3.33;;;;;20.26;43.31;102310.88;4937955;28;45409;-77
2023/12/19 10:10:55;;;;;;;;;4.67;4.67;;;;;20.27;43.33;102295.84;4937718;28;47681;-77
2023/12/19 10:13:39;;;;;;;;;3.67;3.67;;;;;20.25;43.05;102295.13;4938118;28;45301;-76
2023/12/19 10:16:09;;;;;;;;;4.67;4.67;;;;;20.24;43.26;102294.31;4928093;28;45404;-75
2023/12/19 10:18:39;;;;;;;;;6.33;6.00;;;;;19.96;43.11;102249.06;4938106;28;45329;-76
2023/12/19 10:21:15;;;;;;;;;4.00;4.00;;;;;20.25;43.31;102297.78;4938235;28;45292;-75
2023/12/19 10:23:41;;;;;;;;;3.67;3.67;;;;;20.26;43.29;102300.31;4938269;28;46212;-74
2023/12/19 10:26:07;;;;;;;;;3.00;3.00;;;;;20.20;42.98;102284.97;4936746;28;45381;-75
2023/12/19 10:28:33;;;;;;;;;5.67;3.33;;;;;20.24;43.50;102296.13;4937961;28;45476;-74
2023/12/19 10:31:14;;;;;;;;;5.00;4.00;;;;;20.20;43.46;102284.13;4938029;28;45336;-77
2023/12/19 10:33:43;;;;;;;;;4.67;4.33;;;;;20.26;43.06;102281.81;4936964;28;46228;-76
2023/12/19 10:36:24;;;;;;;;;5.00;4.00;;;;;20.16;43.21;102255.34;4935850;28;45259;-76
2023/12/19 10:38:51;;;;;;;;;5.00;5.00;;;;;20.23;43.17;102274.13;4936397;28;45483;-76
2023/12/19 10:41:22;;;;;;;;;4.33;4.33;;;;;20.26;43.52;102271.22;4937167;28;45346;-75
2023/12/19 10:43:52;;;;;;;;;4.33;4.33;;;;;20.23;43.23;102263.56;4937061;28;45349;-76
2023/12/19 10:46:19;;;;;;;;;4.00;3.67;;;;;20.22;43.05;102258.41;4937302;28;45294;-76
2023/12/19 10:48:47;;;;;;;;;3.67;3.00;;;;;20.18;42.97;102244.63;4937537;28;45707;-76
2023/12/19 10:51:16;;;;;;;;;2.33;2.33;;;;;20.24;43.22;102252.03;4938019;28;45486;-76
2023/12/19 10:53:49;;;;;;;;;4.33;2.67;;;;;20.27;43.08;102249.09;4937500;28;46644;-77
2023/12/19 10:56:21;;;;;;;;;6.67;4.33;;;;;20.24;43.18;102232.69;4935968;28;45282;-76
2023/12/19 10:58:48;;;;;;;;;3.67;3.33;;;;;20.16;42.89;102221.00;4936406;28;45412;-78
2023/12/19 11:01:17;;;;;;;;;4.00;4.00;;;;;20.19;43.25;102219.88;4935969;28;45725;-74
2023/12/19 11:03:54;;;;;;;;;3.67;3.67;;;;;20.11;42.76;102209.94;4933995;28;46280;-74
2023/12/19 11:06:22;;;;;;;;;5.67;4.67;;;;;20.12;43.50;102218.72;4935921;28;45406;-78
2023/12/19 11:08:49;;;;;;;;;5.67;4.33;;;;;20.25;44.63;102215.84;4934002;28;45457;-75
2023/12/19 11:11:28;;;;;;;;;5.67;5.67;;;;;20.23;44.93;102204.56;4936680;28;45395;-78
2023/12/19 11:13:54;;;;;;;;;4.67;4.33;;;;;20.11;44.60;102180.03;4937202;28;45630;-80
2023/12/19 11:16:26;;;;;;;;;5.00;4.00;;;;;20.29;45.06;102198.75;4936697;28;45359;-78
2023/12/19 11:19:10;;;;;;;;;5.00;4.00;;;;;20.23;44.37;102186.91;4932959;28;45513;-77
2023/12/19 11:21:48;;;;;;;;;4.67;4.67;;;;;20.31;44.71;102188.03;4937042;28;45508;-77
2023/12/19 11:24:24;;;;;;;;;6.33;4.33;;;;;20.21;45.01;102173.00;4936789;28;46057;-80
2023/12/19 11:27:08;;;;;;;;;8.33;6.33;;;;;20.29;45.19;102177.63;4937183;28;45525;-78
2023/12/19 11:29:55;;;;;;;;;5.00;5.00;;;;;20.34;44.88;102179.84;4936958;28;45371;-78
2023/12/19 11:32:26;;;;;;;;;4.67;4.33;;;;;20.35;45.24;102173.59;4936979;28;45525;-78
2023/12/19 11:34:52;;;;;;;;;4.33;4.33;;;;;20.30;45.02;102155.47;4936760;28;46397;-82
2023/12/19 11:37:21;;;;;;;;;2.00;1.67;;;;;20.34;45.32;102150.78;4930570;28;45344;-78
2023/12/19 11:39:46;;;;;;;;;4.00;4.00;;;;;20.18;45.11;102123.06;4936458;28;45829;-76
2023/12/19 11:42:39;;;;;;;;;3.67;3.67;;;;;20.42;45.05;102132.44;4936926;28;45323;-77
2023/12/19 11:45:25;;;;;;;;;5.67;5.00;;;;;20.40;45.08;102132.53;4936726;28;45397;-77
2023/12/19 11:47:51;;;;;;;;;5.33;5.33;;;;;20.29;44.72;102120.31;4926465;28;45377;-76
2023/12/19 11:50:39;;;;;;;;;7.33;5.00;;;;;20.40;44.82;102121.97;4937363;28;45476;-77
2023/12/19 11:53:05;;;;;;;;;6.00;5.00;;;;;20.39;44.73;102130.88;4937345;28;45354;-76
2023/12/19 11:55:31;;;;;;;;;5.00;4.00;;;;;20.33;44.75;102117.38;4952140;28;46179;-76
2023/12/19 11:58:12;;;;;;;;;4.67;4.67;;;;;20.31;44.61;102109.59;4937272;28;45422;-77
2023/12/19 12:00:38;;;;;;;;;4.67;4.67;;;;;20.33;44.66;102115.56;4937472;28;45382;-78
2023/12/19 12:03:11;;;;;;;;;3.67;3.67;;;;;20.39;44.82;102120.31;4937427;28;45311;-76
2023/12/19 12:05:36;;;;;;;;;6.00;4.00;;;;;20.34;44.36;102117.25;4937049;28;47124;-77
2023/12/19 12:08:03;;;;;;;;;5.00;5.00;;;;;20.10;44.39;102070.88;4936663;28;45284;-76
2023/12/19 12:10:28;;;;;;;;;5.33;5.33;;;;;20.41;44.54;102114.88;4937515;28;45458;-76
2023/12/19 12:12:59;;;;;;;;;3.67;3.33;;;;;20.40;44.60;102106.09;4937319;28;45399;-76
2023/12/19 12:15:25;;;;;;;;;3.33;2.67;;;;;20.40;44.42;102100.00;4937203;28;46395;-76
2023/12/19 12:18:04;;;;;;;;;3.67;3.67;;;;;20.39;44.38;102087.75;4937187;28;45481;-76
2023/12/19 12:20:34;;;;;;;;;4.33;4.33;;;;;20.39;44.73;102080.66;4937229;28;45307;-77
2023/12/19 12:23:00;;;;;;;;;2.33;2.00;;;;;20.33;44.69;102057.41;4936819;28;45715;-77
2023/12/19 12:25:25;;;;;;;;;2.33;2.00;;;;;20.34;44.45;102059.09;4936859;28;45967;-77
2023/12/19 12:27:55;;;;;;;;;3.00;2.33;;;;;20.38;44.48;102039.34;4937031;28;45473;-76
2023/12/19 12:30:27;;;;;;;;;3.67;3.33;;;;;20.39;44.32;102034.88;4939090;28;45264;-76
2023/12/19 12:32:53;;;;;;;;;4.00;4.00;;;;;20.38;44.57;102039.34;4940476;28;45355;-77
2023/12/19 12:35:35;;;;;;;;;4.33;3.33;;;;;20.38;44.32;102041.13;4940072;28;47098;-78
2023/12/19 12:38:02;;;;;;;;;2.00;2.00;;;;;20.38;44.53;102036.69;4939886;28;45329;-77
2023/12/19 12:40:28;;;;;;;;;2.67;2.67;;;;;20.36;44.35;102014.00;4940256;28;45375;-77
2023/12/19 12:43:36;;;;;;;;;4.33;4.00;;;;;20.40;44.22;102015.41;4940270;28;45919;-76
2023/12/19 12:46:01;;;;;;;;;3.00;3.00;;;;;20.38;44.75;102018.19;4939964;28;46154;-76
2023/12/19 12:48:27;;;;;;;;;2.67;2.67;;;;;20.38;44.27;102012.06;4940119;28;45422;-76
2023/12/19 12:50:55;;;;;;;;;3.33;3.33;;;;;20.32;44.53;102004.72;4939916;28;45406;-76
2023/12/19 12:53:21;;;;;;;;;3.33;3.33;;;;;20.37;44.28;102002.47;4940098;28;45394;-76
2023/12/19 12:55:46;;;;;;;;;1.00;1.00;;;;;20.29;44.53;101987.31;4940002;28;46053;-77
2023/12/19 12:58:11;;;;;;;;;3.67;3.67;;;;;20.37;44.52;101998.03;4939906;28;47088;-76
2023/12/19 13:00:38;;;;;;;;;2.67;2.67;;;;;20.33;43.99;101988.69;4939987;28;45338;-76
2023/12/19 13:03:03;;;;;;;;;2.33;2.33;;;;;20.31;44.44;101985.38;4940211;28;45372;-77
2023/12/19 13:05:29;;;;;;;;;3.67;3.67;;;;;20.37;44.24;101992.75;4939342;28;46284;-76
2023/12/19 13:07:55;;;;;;;;;3.00;3.00;;;;;20.29;44.54;101963.53;4939932;28;45510;-76
2023/12/19 13:10:20;;;;;;;;;4.00;4.00;;;;;20.28;44.24;101967.16;4939914;28;45314;-77
2023/12/19 13:12:45;;;;;;;;;2.00;2.00;;;;;20.27;44.57;101962.84;4939852;28;45379;-76
2023/12/19 13:15:12;;;;;;;;;3.00;2.00;;;;;20.36;44.26;101967.28;4939638;28;48611;-76
2023/12/19 13:17:37;;;;;;;;;3.00;3.00;;;;;20.37;44.16;101968.97;4939749;28;45312;-76
2023/12/19 13:20:03;;;;;;;;;5.00;3.00;;;;;20.37;44.26;101968.97;4939026;28;50676;-76
2023/12/19 13:22:29;;;;;;;;;3.00;3.00;;;;;20.33;44.24;101964.91;4938608;28;45268;-76
2023/12/19 13:24:54;;;;;;;;;4.33;4.33;;;;;20.27;44.05;101953.09;4939459;28;45877;-76
2023/12/19 13:27:19;;;;;;;;;4.00;4.00;;;;;20.37;44.41;101981.34;4939494;28;45386;-76
2023/12/19 13:29:45;;;;;;;;;4.33;4.33;;;;;20.37;44.40;101976.88;4939689;28;45369;-75
2023/12/19 13:32:11;;;;;;;;;2.67;2.67;;;;;20.29;44.08;101960.91;4939658;28;45339;-76
2023/12/19 13:34:36;;;;;;;;;3.33;3.33;;;;;20.36;44.11;101961.16;4939112;28;46126;-77
2023/12/19 13:37:02;;;;;;;;;2.67;2.67;;;;;20.36;44.49;101946.13;4939508;28;45240;-76
2023/12/19 13:39:27;;;;;;;;;4.33;3.33;;;;;20.31;44.39;101929.03;4939532;28;45304;-76
2023/12/19 13:41:55;;;;;;;;;5.67;3.33;;;;;20.26;44.43;101910.97;4939351;28;45403;-76
2023/12/19 13:44:21;;;;;;;;;3.00;3.00;;;;;20.29;44.13;101915.97;4939402;28;47344;-76
2023/12/19 13:46:46;;;;;;;;;4.00;3.33;;;;;20.16;44.10;101900.41;4939305;28;45374;-77
2023/12/19 13:49:11;;;;;;;;;3.33;2.67;;;;;20.36;44.38;101919.69;4939009;28;45329;-77
2023/12/19 13:51:36;;;;;;;;;4.33;4.33;;;;;20.37;44.36;101917.91;4938911;28;53892;-77
2023/12/19 13:54:03;;;;;;;;;2.33;2.33;;;;;20.15;44.27;101872.31;4939209;28;45382;-76
2023/12/19 13:56:28;;;;;;;;;3.00;3.00;;;;;20.37;44.71;101913.44;4939332;28;45515;-76
2023/12/19 13:58:53;;;;;;;;;2.00;2.00;;;;;20.25;44.35;101904.00;4939160;28;45431;-76
2023/12/19 14:01:18;;;;;;;;;2.00;2.00;;;;;20.02;44.09;101856.72;4938185;28;60687;-76
2023/12/19 14:03:44;;;;;;;;;3.33;2.00;;;;;20.35;44.12;101912.72;4938630;28;46314;-77
2023/12/19 14:06:09;;;;;;;;;4.33;3.67;;;;;20.35;44.03;101899.53;4939067;28;48291;-76
2023/12/19 14:08:43;;;;;;;;;3.33;3.33;;;;;20.35;44.39;101896.88;4939010;28;45484;-76
2023/12/19 14:11:08;;;;;;;;;5.00;3.67;;;;;20.29;44.40;101871.88;4939045;28;45530;-76
2023/12/19 14:13:33;;;;;;;;;4.00;4.00;;;;;20.26;44.16;101863.38;4937129;28;59931;-76
2023/12/19 14:15:59;;;;;;;;;3.00;3.00;;;;;20.36;44.36;101874.75;4938694;28;57858;-77
2023/12/19 14:18:24;;;;;;;;;2.67;2.67;;;;;20.36;44.25;101873.94;4938626;28;45406;-77
2023/12/19 14:20:49;;;;;;;;;5.00;3.33;;;;;20.36;44.12;101869.47;4937464;28;50606;-76
2023/12/19 14:23:15;;;;;;;;;3.00;2.33;;;;;20.35;44.46;101864.34;4938812;28;45307;-76
2023/12/19 14:25:40;;;;;;;;;3.33;3.33;;;;;20.36;43.90;101860.72;4938677;28;45295;-77
2023/12/19 14:28:06;;;;;;;;;3.67;2.67;;;;;20.36;44.26;101858.91;4938818;28;45255;-77
2023/12/19 14:30:32;;;;;;;;;3.67;2.67;;;;;20.29;44.10;101849.88;4938736;28;45262;-77
2023/12/19 14:32:57;;;;;;;;;3.67;3.33;;;;;20.31;43.91;101845.28;4938042;28;46207;-77
2023/12/19 14:35:23;;;;;;;;;2.67;2.67;;;;;20.31;44.06;101842.66;4938667;28;45319;-77
2023/12/19 14:37:48;;;;;;;;;2.67;2.67;;;;;20.31;44.14;101837.38;4938678;28;45286;-77
2023/12/19 14:40:14;;;;;;;;;2.67;2.67;;;;;20.32;44.41;101831.13;4938625;28;46021;-78
2023/12/19 14:42:40;;;;;;;;;2.67;2.67;;;;;20.21;44.32;101808.34;4938387;28;46233;-78
2023/12/19 14:45:06;;;;;;;;;4.00;4.00;;;;;20.34;44.21;101831.78;4938360;28;45310;-77
2023/12/19 14:47:31;;;;;;;;;3.00;3.00;;;;;20.32;44.31;101820.53;4938070;28;45449;-77
2023/12/19 14:49:57;;;;;;;;;3.33;3.00;;;;;20.27;44.24;101810.38;4938416;28;45427;-77
2023/12/19 14:52:23;;;;;;;;;4.67;3.67;;;;;20.35;44.15;101800.91;4937645;28;47187;-78
2023/12/19 14:54:48;;;;;;;;;3.00;3.00;;;;;20.36;44.27;101810.50;4938338;28;45482;-77
2023/12/19 14:57:13;;;;;;;;;1.67;1.67;;;;;20.36;44.35;101811.34;4938310;28;45322;-77
2023/12/19 14:59:39;;;;;;;;;4.33;3.33;;;;;20.36;44.14;101813.97;4938152;28;45599;-76
2023/12/19 15:02:05;;;;;;;;;4.33;3.00;;;;;20.35;44.33;101800.91;4937825;28;46252;-78
2023/12/19 15:04:32;;;;;;;;;6.00;3.67;;;;;20.32;43.95;101801.19;4938117;28;45408;-77
2023/12/19 15:06:57;;;;;;;;;2.33;1.67;;;;;20.35;44.00;101790.34;4938227;28;45416;-77
2023/12/19 15:09:23;;;;;;;;;2.67;2.67;;;;;20.37;44.05;101793.66;4937885;28;45432;-77
2023/12/19 15:11:49;;;;;;;;;2.67;2.67;;;;;20.31;44.20;101800.38;4937696;28;56092;-77
2023/12/19 15:14:14;;;;;;;;;3.33;2.33;;;;;20.35;44.49;101793.00;4937945;28;45300;-77
2023/12/19 15:16:40;;;;;;;;;3.33;2.00;;;;;20.35;44.06;101801.72;4937659;28;45298;-77
2023/12/19 15:19:05;;;;;;;;;5.33;5.00;;;;;20.36;43.91;101786.69;4937987;28;45281;-78
2023/12/19 15:21:30;;;;;;;;;4.00;2.67;;;;;20.36;44.20;101792.00;4937827;28;45301;-78
2023/12/19 15:23:56;;;;;;;;;2.67;2.67;;;;;20.35;44.18;101783.22;4937849;28;45366;-77
2023/12/19 15:26:22;;;;;;;;;3.00;2.33;;;;;20.32;44.22;101791.47;4938049;28;45409;-78
2023/12/19 15:28:48;;;;;;;;;3.67;2.67;;;;;20.29;44.06;101767.97;4937900;28;45313;-78
2023/12/19 15:31:14;;;;;;;;;3.67;2.67;;;;;20.36;44.13;101789.34;4937384;28;46364;-78
2023/12/19 15:33:42;;;;;;;;;2.33;2.33;;;;;20.31;44.29;101766.00;4937605;28;45348;-79
2023/12/19 15:36:16;;;;;;;;;4.33;3.33;;;;;19.68;43.96;101683.75;4937761;28;45306;-78
2023/12/19 15:38:42;;;;;;;;;2.33;2.33;;;;;20.32;43.92;101772.97;4937838;28;45365;-78
2023/12/19 15:41:10;;;;;;;;;4.67;3.00;;;;;20.34;43.96;101784.22;4937548;28;46547;-77
2023/12/19 15:43:38;;;;;;;;;3.33;2.67;;;;;20.34;44.19;101756.94;4937746;28;45299;-77
2023/12/19 15:46:09;;;;;;;;;1.67;1.67;;;;;20.33;44.29;101782.53;4937257;28;45251;-77
2023/12/19 15:48:35;;;;;;;;;2.67;2.67;;;;;20.29;44.17;101762.69;4937482;28;45423;-78
2023/12/19 15:51:00;;;;;;;;;2.50;2.50;;;;;20.23;44.40;101757.97;4937691;28;46366;-77
2023/12/19 15:53:25;;;;;;;;;2.33;2.33;;;;;20.25;44.30;101762.13;4937602;28;45301;-78
2023/12/19 15:55:51;;;;;;;;;2.67;2.67;;;;;20.33;44.17;101768.50;4937637;28;45355;-78
2023/12/19 15:58:16;;;;;;;;;2.67;2.67;;;;;20.31;44.26;101771.28;4937740;28;45355;-78
2023/12/19 16:00:41;;;;;;;;;4.67;4.67;;;;;20.25;44.38;101756.84;4936464;28;56462;-78
2023/12/19 16:03:06;;;;;;;;;4.33;3.33;;;;;20.23;44.28;101755.31;4937591;28;45426;-78
2023/12/19 16:05:32;;;;;;;;;2.67;2.67;;;;;20.24;44.25;101759.66;4939117;28;57804;-78
2023/12/19 16:07:57;;;;;;;;;6.00;3.33;;;;;20.34;44.13;101773.66;4940744;28;45467;-78
2023/12/19 16:10:22;;;;;;;;;3.67;3.00;;;;;20.28;44.20;101769.78;4940694;28;48141;-78
2023/12/19 16:12:48;;;;;;;;;2.67;2.67;;;;;20.34;44.08;101767.53;4940715;28;45454;-77
2023/12/19 16:15:13;;;;;;;;;2.67;2.67;;;;;20.24;44.24;101752.56;4940658;28;45423;-78
2023/12/19 16:17:39;;;;;;;;;2.67;2.67;;;;;20.35;44.21;101762.06;4940841;28;45414;-78
2023/12/19 16:20:06;;;;;;;;;2.67;2.67;;;;;20.35;44.12;101763.91;4940653;28;45451;-79
2023/12/19 16:22:31;;;;;;;;;4.00;4.00;;;;;20.02;44.05;101707.00;4940783;28;45484;-78
2023/12/19 16:24:56;;;;;;;;;3.00;3.00;;;;;20.24;44.16;101744.63;4940544;28;45401;-78
2023/12/19 16:27:21;;;;;;;;;2.33;2.33;;;;;20.35;44.31;101753.34;4940230;28;54838;-78
2023/12/19 16:29:48;;;;;;;;;3.33;3.00;;;;;20.36;44.44;101752.34;4940019;28;45361;-77
2023/12/19 16:32:13;;;;;;;;;2.00;2.00;;;;;20.26;44.04;101739.19;4940587;28;45486;-79
2023/12/19 16:34:40;;;;;;;;;3.33;3.00;;;;;20.27;44.10;101733.75;4940635;28;45354;-79
2023/12/19 16:37:05;;;;;;;;;3.00;3.00;;;;;20.34;44.67;101741.94;4940613;28;45336;-78
2023/12/19 16:39:30;;;;;;;;;2.67;2.67;;;;;20.26;44.38;101733.91;4940320;28;45910;-78
2023/12/19 16:41:56;;;;;;;;;3.00;3.00;;;;;20.34;44.39;101739.28;4940529;28;45322;-77
2023/12/19 16:44:21;;;;;;;;;3.33;3.33;;;;;20.35;44.28;101742.78;4939082;28;45264;-77
2023/12/19 16:46:47;;;;;;;;;5.33;2.67;;;;;20.26;44.08;101721.53;4940346;28;45224;-77
2023/12/19 16:49:12;;;;;;;;;2.67;2.67;;;;;20.33;44.45;101732.31;4955119;28;46198;-76
2023/12/19 16:51:37;;;;;;;;;3.33;2.00;;;;;20.33;44.28;101727.03;4940581;28;45234;-76
2023/12/19 16:54:03;;;;;;;;;2.67;2.67;;;;;20.31;44.53;101726.38;4940550;28;45218;-77
2023/12/19 16:56:29;;;;;;;;;2.00;2.00;;;;;20.33;44.39;101729.69;4940559;28;45304;-75
2023/12/19 16:58:55;;;;;;;;;2.67;2.67;;;;;20.27;44.42;101723.16;4939598;28;46460;-77
2023/12/19 17:01:20;;;;;;;;;4.33;3.00;;;;;20.34;44.15;101722.59;4940147;28;45270;-77
2023/12/19 17:03:45;;;;;;;;;4.67;4.67;;;;;20.23;44.55;101715.69;4938826;28;45375;-77
2023/12/19 17:06:11;;;;;;;;;3.67;3.00;;;;;20.26;44.15;101710.94;4940275;28;46507;-77
2023/12/19 17:08:36;;;;;;;;;3.00;3.00;;;;;20.34;44.42;101722.59;4940230;28;45319;-77
2023/12/19 17:11:01;;;;;;;;;3.33;3.33;;;;;20.26;44.12;101703.03;4940087;28;45303;-74
2023/12/19 17:13:27;;;;;;;;;4.00;2.67;;;;;20.33;44.17;101718.28;4938082;28;58329;-78
2023/12/19 17:15:52;;;;;;;;;4.67;2.67;;;;;20.33;44.23;101724.41;4939894;28;45336;-76
2023/12/19 17:18:18;;;;;;;;;3.67;3.67;;;;;20.23;44.25;101708.59;4940745;28;45363;-76
2023/12/19 17:20:43;;;;;;;;;3.67;1.67;;;;;20.33;44.33;101719.09;4939617;28;45445;-75
2023/12/19 17:23:08;;;;;;;;;3.00;3.00;;;;;20.33;44.35;101727.03;4940373;28;45345;-76
2023/12/19 17:25:34;;;;;;;;;5.00;3.33;;;;;20.32;44.36;101722.75;4939938;28;58078;-76
2023/12/19 17:27:59;;;;;;;;;4.00;3.33;;;;;20.27;44.25;101719.72;4939203;28;46226;-76
2023/12/19 17:30:27;;;;;;;;;3.33;2.00;;;;;20.25;44.34;101717.19;4939629;28;45440;-79
2023/12/19 17:32:52;;;;;;;;;1.67;1.67;;;;;20.31;44.57;101725.53;4936591;28;45355;-75
2023/12/19 17:35:18;;;;;;;;;4.33;2.33;;;;;20.29;44.45;101713.31;4939494;28;45361;-77
2023/12/19 17:37:43;;;;;;;;;3.00;3.00;;;;;20.13;44.45;101686.66;4939102;28;47946;-75
2023/12/19 17:40:09;;;;;;;;;4.00;2.00;;;;;20.32;44.78;101717.47;4938731;28;45395;-77
2023/12/19 17:42:37;;;;;;;;;3.67;3.33;;;;;20.33;44.67;101715.63;4937940;28;45491;-76
2023/12/19 17:45:04;;;;;;;;;1.67;1.67;;;;;20.30;44.45;101716.75;4939498;28;45483;-75
2023/12/19 17:47:30;;;;;;;;;2.33;2.33;;;;;20.36;44.93;101724.09;4939042;28;45647;-75
2023/12/19 17:49:55;;;;;;;;;2.67;2.33;;;;;20.25;44.62;101700.50;4938969;28;45592;-76
2023/12/19 17:52:20;;;;;;;;;2.67;2.67;;;;;20.30;44.45;101714.13;4954244;28;45375;-75
2023/12/19 17:54:46;;;;;;;;;1.67;1.67;;;;;20.29;44.62;101709.81;4939237;28;45158;-75
2023/12/19 17:57:19;;;;;;;;;2.67;2.67;;;;;20.25;44.59;101705.78;4938927;28;46102;-76
2023/12/19 17:59:45;;;;;;;;;2.33;1.67;;;;;20.15;44.46;101698.75;4939388;28;45361;-76
2023/12/19 18:02:11;;;;;;;;;2.00;2.00;;;;;20.35;44.85;101737.47;4953924;28;45389;-76
2023/12/19 18:04:36;;;;;;;;;4.00;2.00;;;;;20.27;44.55;101717.88;4939024;28;45456;-76
2023/12/19 18:07:03;;;;;;;;;2.67;2.67;;;;;20.32;44.95;101722.75;4953899;28;47982;-76
2023/12/19 18:09:29;;;;;;;;;4.67;3.33;;;;;20.35;44.45;101730.38;4938511;28;45397;-75
2023/12/19 18:11:57;;;;;;;;;2.67;2.67;;;;;20.32;44.62;101735.97;4938990;28;45393;-75
2023/12/19 18:14:24;;;;;;;;;1.67;1.67;;;;;20.29;44.97;101736.25;4939019;28;45652;-75
2023/12/19 18:16:49;;;;;;;;;1.67;1.67;;;;;20.30;44.80;101743.19;4938670;28;46392;-76
2023/12/19 18:19:15;;;;;;;;;2.50;2.00;;;;;20.26;44.64;101740.03;4938915;28;45395;-75
2023/12/19 18:21:41;;;;;;;;;1.67;1.67;;;;;20.35;44.55;101756.78;4939038;28;45449;-75
2023/12/19 18:24:07;;;;;;;;;2.67;2.67;;;;;20.35;44.71;101779.78;4938590;28;45506;-75